Terminal Aerodrome Forecast
Issued by NWS

Home | Current Version | Previous Version | Text Only | Print | Product List | Glossary On
Versions: 1 2 3 4 5 6 7 8 9 10 11 12 13 14 15 16 17 18 19 20 21 22 23
000
FTUS41 KOKX 271331 AAA
TAFSWF
TAF AMD
KSWF 271331Z 2714/2818 22009KT P6SM SCT020 BKN050
      TEMPO 2714/2716 BKN020
     FM271600 21010KT P6SM FEW020 BKN040
     FM272100 20014KT P6SM VCTS BKN040CB
     FM280100 20008KT 6SM BR SCT008 BKN200
     FM280700 23005KT 5SM BR SCT008 BKN200
     FM281400 25011KT P6SM BKN200
      AMD NOT SKED=

USA.gov is the U.S. government's official web portal to all federal, state and local government web resources and services.